< Typhoon 197711 1977 Season Typhoon 197713 >
Typhoon 197712 (DINAH)
General InformationTrack Information on Google MapsDetailed Wind Information || Disaster Info.ResourceGoogle EarthGE AnimationAtom FeedGeoJSON
Detalied Best Track (Time Zone = UTC)
Year Month Day Hour Lat. Long. Pressure (hPa) Wind (kt) Class Image Chart
1977 9 11 06 19.3 146.7 1002 0 2 -- Chart
1977 9 11 12 19.6 146.1 1004 0 2 -- Chart
1977 9 11 18 19.7 145.5 1004 0 2 -- Chart
1977 9 12 00 20.1 145.0 1004 0 2 -- Chart
1977 9 12 06 20.5 143.3 1002 0 2 -- Chart
1977 9 12 12 21.0 141.4 1004 0 2 -- Chart
1977 9 12 18 21.3 139.5 1004 0 2 -- Chart
1977 9 13 00 21.5 137.5 1002 0 2 -- Chart
1977 9 13 06 21.5 136.0 1000 0 2 -- Chart
1977 9 13 12 21.5 134.3 996 0 2 -- Chart
1977 9 13 18 21.5 132.5 996 0 2 -- Chart
1977 9 14 00 21.5 131.0 996 0 2 -- Chart
1977 9 14 06 21.5 129.7 994 0 2 -- Chart
1977 9 14 12 21.4 128.5 994 0 2 -- Chart
1977 9 14 18 21.0 127.0 994 0 2 -- Chart
1977 9 15 00 20.0 125.0 992 0 2 -- Chart
1977 9 15 06 18.6 123.5 965 60 4 -- Chart
1977 9 15 12 18.2 122.5 965 70 5 -- Chart
1977 9 15 18 17.8 121.3 975 65 5 -- Chart
1977 9 16 00 17.5 120.1 985 55 4 -- Chart
1977 9 16 06 17.3 119.3 985 55 4 -- Chart
1977 9 16 12 17.2 118.5 985 50 4 -- Chart
1977 9 16 18 17.3 117.7 980 50 4 -- Chart
1977 9 17 00 17.4 117.0 980 50 4 -- Chart
1977 9 17 06 17.4 116.2 980 60 4 -- Chart
1977 9 17 12 17.6 115.7 975 60 4 -- Chart
1977 9 17 18 18.1 116.2 985 55 4 -- Chart
1977 9 18 00 18.4 117.0 985 50 4 -- Chart
1977 9 18 06 18.9 117.6 985 50 4 -- Chart
1977 9 18 12 19.2 117.9 980 60 4 -- Chart
1977 9 18 18 19.4 118.1 975 60 4 -- Chart
1977 9 19 00 19.6 118.4 970 60 4 -- Chart
1977 9 19 06 19.7 118.5 965 60 4 -- Chart
1977 9 19 12 19.7 118.7 965 60 4 -- Chart
1977 9 19 18 19.9 118.9 965 60 4 -- Chart
1977 9 20 00 20.1 119.2 965 65 5 -- Chart
1977 9 20 06 20.2 119.2 965 70 5 -- Chart
1977 9 20 12 20.2 119.0 970 70 5 -- Chart
1977 9 20 18 20.2 118.9 970 70 5 -- Chart
1977 9 21 00 20.0 118.5 975 65 5 -- Chart
1977 9 21 06 19.5 117.7 980 65 5 -- Chart
1977 9 21 12 19.0 117.0 980 60 4 -- Chart
1977 9 21 18 18.5 116.4 985 60 4 -- Chart
1977 9 22 00 18.2 115.6 985 55 4 -- Chart
1977 9 22 06 17.7 114.7 985 55 4 -- Chart
1977 9 22 12 17.1 114.0 985 55 4 -- Chart
1977 9 22 18 16.4 113.1 985 60 4 -- Chart
1977 9 23 00 15.7 112.2 985 50 4 -- Chart
1977 9 23 06 15.0 111.2 985 50 4 -- Chart
1977 9 23 12 14.5 110.3 985 50 4 -- Chart
1977 9 23 18 14.0 109.4 990 35 3 -- Chart
1977 9 24 00 13.2 109.0 998 0 2 -- Chart
1977 9 24 06 13.5 110.0 1000 0 2 -- Chart
1977 9 24 12 13.8 110.0 1002 0 2 -- Chart
1977 9 24 18 13.6 109.4 1002 0 2 -- Chart
1977 9 25 00 14.0 109.2 1002 0 2 -- Chart
1977 9 25 06 14.0 109.0 1004 0 6 -- Chart
1977 9 25 12 14.2 108.5 1004 0 6 -- Chart
1977 9 25 18 14.6 108.5 1005 0 6 -- Chart
1977 9 26 00 15.0 107.5 1007 0 6 -- Chart
Japan Meteorological Agency Best Track Data | Correction Date : 1992-10-21
< Typhoon 197711 1977 Season Typhoon 197713 >

Help